Time;durP1;ratioP1;P1;durP2;ratioP2;P2;SDS_P1;SDS_P2;PMS_P1;PMS_P2;Temp;Humidity;BMP_temperature;BMP_pressure;BME280_temperature;BME280_humidity;BME280_pressure;Samples;Min_cycle;Max_cycle;Signal;HPM_P1;HPM_P2
2022/03/07 00:01:32;;;;;;;25.50;14.67;;;3.00;68.10;;;;;;5044884;28;20485;-47
2022/03/07 00:03:59;;;;;;;15.77;11.50;;;3.00;67.70;;;;;;5046361;28;20488;-47
2022/03/07 00:06:25;;;;;;;21.70;12.00;;;2.90;67.40;;;;;;5048626;28;20488;-47
2022/03/07 00:08:52;;;;;;;19.40;12.10;;;3.00;67.50;;;;;;5042362;28;20487;-46
2022/03/07 00:11:21;;;;;;;17.23;12.00;;;2.90;67.40;;;;;;5044514;28;20761;-47
2022/03/07 00:13:48;;;;;;;16.87;12.50;;;2.90;67.70;;;;;;5045979;28;20677;-55
2022/03/07 00:16:15;;;;;;;17.37;11.53;;;2.90;67.70;;;;;;5047269;28;20657;-46
2022/03/07 00:18:42;;;;;;;26.50;12.87;;;2.90;68.00;;;;;;5042719;28;20482;-46
2022/03/07 00:21:10;;;;;;;19.43;13.87;;;2.90;68.10;;;;;;5040856;28;20985;-46
2022/03/07 00:23:37;;;;;;;22.47;11.77;;;2.80;68.10;;;;;;5039620;28;20826;-46
2022/03/07 00:26:04;;;;;;;33.97;13.73;;;2.80;68.00;;;;;;5048534;28;20493;-46
2022/03/07 00:28:32;;;;;;;21.80;14.63;;;2.80;68.00;;;;;;5039679;28;20502;-46
2022/03/07 00:30:59;;;;;;;16.57;12.20;;;2.80;68.00;;;;;;5039106;28;20477;-47
2022/03/07 00:33:26;;;;;;;20.13;12.97;;;2.80;67.90;;;;;;5039752;28;21233;-46
2022/03/07 00:35:53;;;;;;;15.33;12.47;;;2.80;67.90;;;;;;5039785;28;20952;-47
2022/03/07 00:38:20;;;;;;;22.47;13.50;;;2.80;67.70;;;;;;5044262;28;20962;-47
2022/03/07 00:40:47;;;;;;;19.03;12.33;;;2.80;67.90;;;;;;5038606;28;20477;-47
2022/03/07 00:43:14;;;;;;;16.23;11.67;;;2.70;67.90;;;;;;5041940;28;20489;-46
2022/03/07 00:45:42;;;;;;;17.93;12.00;;;2.70;68.10;;;;;;5040811;28;20485;-47
2022/03/07 00:48:09;;;;;;;42.70;13.83;;;2.70;68.40;;;;;;5041979;28;20955;-47
2022/03/07 00:50:36;;;;;;;20.70;12.23;;;2.60;68.10;;;;;;5039957;28;20493;-47
2022/03/07 00:53:02;;;;;;;13.67;10.97;;;2.70;68.20;;;;;;5033530;28;20483;-47
2022/03/07 00:55:29;;;;;;;22.10;13.00;;;2.60;68.20;;;;;;5054692;28;20487;-47
2022/03/07 00:57:56;;;;;;;15.90;12.27;;;2.60;68.30;;;;;;5041786;28;20978;-47
2022/03/07 01:00:23;;;;;;;21.23;12.30;;;2.60;68.40;;;;;;5040577;28;21691;-47
2022/03/07 01:02:51;;;;;;;18.60;12.43;;;2.50;68.70;;;;;;5041226;28;20775;-46
2022/03/07 01:05:19;;;;;;;24.20;13.60;;;2.50;68.90;;;;;;5029442;28;20547;-47
2022/03/07 01:07:46;;;;;;;14.17;10.93;;;2.50;68.90;;;;;;5040826;28;20694;-46
2022/03/07 01:10:13;;;;;;;28.30;13.60;;;2.50;69.10;;;;;;5039809;28;20469;-46
2022/03/07 01:12:40;;;;;;;14.67;11.80;;;2.50;69.20;;;;;;5041230;28;20477;-46
2022/03/07 01:15:09;;;;;;;20.27;11.87;;;2.40;69.40;;;;;;5040171;28;20489;-46
2022/03/07 01:17:36;;;;;;;28.13;12.80;;;2.40;69.70;;;;;;5038543;28;20496;-48
2022/03/07 01:20:06;;;;;;;16.73;11.97;;;2.40;69.80;;;;;;5040572;28;20477;-46
2022/03/07 01:22:33;;;;;;;14.37;10.80;;;2.30;69.80;;;;;;5042172;28;20489;-46
2022/03/07 01:25:00;;;;;;;31.43;12.30;;;2.20;70.40;;;;;;5039681;28;20489;-46
2022/03/07 01:27:26;;;;;;;19.10;13.13;;;2.30;70.50;;;;;;5040444;28;20483;-46
2022/03/07 01:29:53;;;;;;;19.67;12.33;;;2.20;70.70;;;;;;5040223;28;20486;-46
2022/03/07 01:32:20;;;;;;;27.93;13.33;;;2.20;70.90;;;;;;5042595;28;20478;-46
2022/03/07 01:34:47;;;;;;;19.30;12.37;;;2.20;70.80;;;;;;5036887;28;20991;-47
2022/03/07 01:37:15;;;;;;;16.63;11.10;;;2.20;70.90;;;;;;5042299;28;20465;-46
2022/03/07 01:39:43;;;;;;;21.80;11.43;;;2.20;70.60;;;;;;5038985;28;20749;-47
2022/03/07 01:42:10;;;;;;;12.50;8.53;;;2.20;70.70;;;;;;5041098;28;20487;-45
2022/03/07 01:44:38;;;;;;;12.67;8.20;;;2.10;70.70;;;;;;5038432;28;20489;-45
2022/03/07 01:47:05;;;;;;;24.63;10.93;;;2.10;71.30;;;;;;5039617;28;20482;-45
2022/03/07 01:49:32;;;;;;;12.63;9.67;;;2.00;71.00;;;;;;5039363;28;20539;-45
2022/03/07 01:51:59;;;;;;;17.00;10.00;;;2.00;71.00;;;;;;5038378;28;20492;-46
2022/03/07 01:54:27;;;;;;;19.93;9.40;;;2.00;71.20;;;;;;5040691;28;20481;-46
2022/03/07 01:56:55;;;;;;;14.57;9.90;;;1.90;71.20;;;;;;5039806;28;20887;-46
2022/03/07 01:59:24;;;;;;;15.70;9.57;;;1.90;71.20;;;;;;5039324;28;20473;-48
2022/03/07 02:01:51;;;;;;;14.47;10.60;;;1.90;71.20;;;;;;5035726;28;20837;-46
2022/03/07 02:04:18;;;;;;;15.93;10.67;;;1.90;71.40;;;;;;5027319;28;20480;-46
2022/03/07 02:06:46;;;;;;;11.53;9.33;;;1.80;71.30;;;;;;5034673;28;20485;-46
2022/03/07 02:09:14;;;;;;;14.97;9.57;;;1.80;71.20;;;;;;5040662;28;20492;-46
2022/03/07 02:11:42;;;;;;;14.83;11.10;;;1.90;71.50;;;;;;5036186;28;20498;-46
2022/03/07 02:14:14;;;;;;;22.23;10.90;;;1.80;71.20;;;;;;5043590;28;20489;-46
2022/03/07 02:16:41;;;;;;;19.17;10.10;;;1.80;71.10;;;;;;5045957;28;20492;-47
2022/03/07 02:19:07;;;;;;;15.17;9.20;;;1.80;71.20;;;;;;5040541;28;20484;-46
2022/03/07 02:21:35;;;;;;;18.60;11.77;;;1.70;71.30;;;;;;5040026;28;20477;-47
2022/03/07 02:24:04;;;;;;;19.30;12.40;;;1.70;71.20;;;;;;5043022;28;20472;-46
2022/03/07 02:26:31;;;;;;;12.90;9.47;;;1.70;71.20;;;;;;5042697;28;20495;-46
2022/03/07 02:28:58;;;;;;;28.10;11.53;;;1.70;71.20;;;;;;5039015;28;20592;-47
2022/03/07 02:31:25;;;;;;;14.13;9.80;;;1.70;71.40;;;;;;5043195;28;20552;-47
2022/03/07 02:33:52;;;;;;;18.13;10.60;;;1.60;71.30;;;;;;5045063;28;20474;-46
2022/03/07 02:36:19;;;;;;;26.70;11.57;;;1.60;71.40;;;;;;5043490;28;20480;-46
2022/03/07 02:38:46;;;;;;;17.63;10.10;;;1.50;71.30;;;;;;5037456;28;21012;-47
2022/03/07 02:41:14;;;;;;;13.43;10.33;;;1.50;71.40;;;;;;5043121;28;20487;-46
2022/03/07 02:43:41;;;;;;;24.57;10.60;;;1.40;71.70;;;;;;5042282;28;20482;-47
2022/03/07 02:46:07;;;;;;;14.40;9.40;;;1.40;72.10;;;;;;5043864;28;20967;-46
2022/03/07 02:48:34;;;;;;;15.10;9.93;;;1.30;72.20;;;;;;5043338;28;20481;-46
2022/03/07 02:51:01;;;;;;;21.80;10.43;;;1.20;72.60;;;;;;5040637;28;20592;-46
2022/03/07 02:53:28;;;;;;;21.27;10.43;;;1.20;72.70;;;;;;5039602;28;20912;-46
2022/03/07 02:55:55;;;;;;;13.13;10.03;;;1.10;73.00;;;;;;5043442;28;20487;-46
2022/03/07 02:58:23;;;;;;;30.07;10.83;;;1.10;73.30;;;;;;5032663;28;20520;-46
2022/03/07 03:00:50;;;;;;;15.97;10.77;;;1.00;73.50;;;;;;5039761;28;20480;-46
2022/03/07 03:03:17;;;;;;;15.40;9.23;;;1.00;73.60;;;;;;5042294;28;20858;-50
2022/03/07 03:05:44;;;;;;;21.10;10.30;;;1.00;73.80;;;;;;5042953;28;20489;-47
2022/03/07 03:08:11;;;;;;;15.47;10.43;;;1.00;74.00;;;;;;5043506;28;20843;-46
2022/03/07 03:10:38;;;;;;;20.00;11.80;;;1.00;74.10;;;;;;5037054;28;20487;-46
2022/03/07 03:13:04;;;;;;;22.30;10.20;;;0.90;74.10;;;;;;5042853;28;20530;-46
2022/03/07 03:15:32;;;;;;;18.93;10.50;;;0.90;74.10;;;;;;5042888;28;20989;-47
2022/03/07 03:17:59;;;;;;;16.07;9.57;;;1.00;74.20;;;;;;5043477;28;20507;-46
2022/03/07 03:20:26;;;;;;;21.07;10.57;;;1.00;74.20;;;;;;5041943;28;20493;-46
2022/03/07 03:22:53;;;;;;;21.23;10.83;;;0.90;74.20;;;;;;5042587;28;20498;-46
2022/03/07 03:25:19;;;;;;;10.60;7.90;;;0.90;74.10;;;;;;5044808;28;20478;-45
2022/03/07 03:27:46;;;;;;;23.43;9.80;;;0.90;74.60;;;;;;5041918;28;20472;-46
2022/03/07 03:30:14;;;;;;;12.30;8.87;;;0.80;74.90;;;;;;5041842;28;20481;-46
2022/03/07 03:32:42;;;;;;;9.27;6.77;;;0.80;74.80;;;;;;5043686;28;20492;-46
2022/03/07 03:35:10;;;;;;;18.53;7.97;;;0.80;75.00;;;;;;5041859;28;20485;-45
2022/03/07 03:37:37;;;;;;;12.73;8.90;;;0.80;75.10;;;;;;5043882;28;20495;-45
2022/03/07 03:40:05;;;;;;;9.20;7.60;;;0.80;75.30;;;;;;5039139;28;21062;-45
2022/03/07 03:42:32;;;;;;;25.97;9.77;;;0.80;75.20;;;;;;5038901;28;20485;-45
2022/03/07 03:44:59;;;;;;;9.40;6.97;;;0.80;75.10;;;;;;5042256;28;20840;-46
2022/03/07 03:47:26;;;;;;;12.13;8.67;;;0.80;75.10;;;;;;5043810;28;20499;-46
2022/03/07 03:49:54;;;;;;;16.97;8.73;;;0.80;75.00;;;;;;5044921;28;20491;-47
2022/03/07 03:52:20;;;;;;;9.37;6.50;;;0.80;75.00;;;;;;5040779;28;20487;-45
2022/03/07 03:54:47;;;;;;;11.03;6.73;;;0.80;75.10;;;;;;5040408;28;20473;-45
2022/03/07 03:57:14;;;;;;;18.33;7.57;;;0.80;75.00;;;;;;5037587;28;20469;-45
2022/03/07 03:59:41;;;;;;;13.50;7.30;;;0.80;74.90;;;;;;5041811;28;20480;-47
2022/03/07 04:02:08;;;;;;;7.27;6.50;;;0.80;75.00;;;;;;5040173;28;20480;-46
2022/03/07 04:04:34;;;;;;;17.40;8.50;;;0.80;75.00;;;;;;5032428;28;21046;-46
2022/03/07 04:07:03;;;;;;;8.13;7.07;;;0.80;74.90;;;;;;5056207;28;20483;-46
2022/03/07 04:09:30;;;;;;;9.80;7.73;;;0.80;75.00;;;;;;5040988;28;20684;-47
2022/03/07 04:11:57;;;;;;;22.93;10.43;;;0.80;75.00;;;;;;5040060;28;20488;-46
2022/03/07 04:14:24;;;;;;;14.93;9.23;;;0.80;74.90;;;;;;5041134;28;20501;-46
2022/03/07 04:16:51;;;;;;;9.57;7.20;;;0.80;74.60;;;;;;5040834;28;20495;-47
2022/03/07 04:19:17;;;;;;;17.93;7.00;;;0.70;74.80;;;;;;5042408;28;20477;-46
2022/03/07 04:21:45;;;;;;;9.27;7.43;;;0.70;74.60;;;;;;5040487;28;20841;-47
2022/03/07 04:24:14;;;;;;;11.60;8.60;;;0.70;74.50;;;;;;5040075;28;20480;-46
2022/03/07 04:26:41;;;;;;;17.77;9.60;;;0.70;74.40;;;;;;5037340;28;20851;-49
2022/03/07 04:29:08;;;;;;;18.33;8.20;;;0.70;74.30;;;;;;5040897;28;20653;-46
2022/03/07 04:31:35;;;;;;;13.30;7.63;;;0.70;74.10;;;;;;5042040;28;20498;-46
2022/03/07 04:34:03;;;;;;;15.27;8.17;;;0.70;74.00;;;;;;5041455;28;20574;-46
2022/03/07 04:36:29;;;;;;;16.63;8.10;;;0.70;73.80;;;;;;5041723;28;20502;-46
2022/03/07 04:38:56;;;;;;;11.23;7.40;;;0.70;73.70;;;;;;5041629;28;20498;-46
2022/03/07 04:41:24;;;;;;;17.30;7.80;;;0.70;73.80;;;;;;5041702;28;20475;-45
2022/03/07 04:43:51;;;;;;;10.67;8.33;;;0.70;73.70;;;;;;5040106;28;21215;-45
2022/03/07 04:46:18;;;;;;;12.70;7.70;;;0.70;73.50;;;;;;5040788;28;20495;-46
2022/03/07 04:48:44;;;;;;;18.40;8.60;;;0.70;73.60;;;;;;5038282;28;21117;-45
2022/03/07 04:51:11;;;;;;;17.87;8.10;;;0.70;73.70;;;;;;5041962;28;20493;-45
2022/03/07 04:53:38;;;;;;;10.77;6.93;;;0.70;73.60;;;;;;5041377;28;20480;-45
2022/03/07 04:56:05;;;;;;;20.30;8.27;;;0.60;73.40;;;;;;5041424;28;20487;-45
2022/03/07 04:58:33;;;;;;;9.83;6.80;;;0.60;73.30;;;;;;5041981;28;20492;-46
2022/03/07 05:01:00;;;;;;;14.53;6.70;;;0.50;73.10;;;;;;5040241;28;20488;-48
2022/03/07 05:03:27;;;;;;;19.30;7.10;;;0.60;73.10;;;;;;5026677;28;20886;-46
2022/03/07 05:05:54;;;;;;;10.50;7.07;;;0.60;73.10;;;;;;5040210;28;21631;-45
2022/03/07 05:08:21;;;;;;;7.87;6.30;;;0.60;73.00;;;;;;5041937;28;21110;-45
2022/03/07 05:10:48;;;;;;;16.03;6.60;;;0.60;73.00;;;;;;5039747;28;20491;-45
2022/03/07 05:13:15;;;;;;;10.47;7.10;;;0.50;73.00;;;;;;5041320;28;20481;-46
2022/03/07 05:15:43;;;;;;;7.37;5.87;;;0.60;73.10;;;;;;5040313;28;20493;-46
2022/03/07 05:18:09;;;;;;;20.03;7.13;;;0.60;73.10;;;;;;5041010;28;21060;-46
2022/03/07 05:20:36;;;;;;;7.73;6.23;;;0.60;73.30;;;;;;5038874;28;20484;-46
2022/03/07 05:23:03;;;;;;;9.40;6.33;;;0.60;73.30;;;;;;5039948;28;20476;-46
2022/03/07 05:25:30;;;;;;;16.73;7.03;;;0.60;73.20;;;;;;5040920;28;21072;-46
2022/03/07 05:27:57;;;;;;;8.23;6.50;;;0.70;73.50;;;;;;5042379;28;21002;-46
2022/03/07 05:30:23;;;;;;;10.57;7.30;;;0.80;73.60;;;;;;5037742;28;21034;-46
2022/03/07 05:32:54;;;;;;;14.03;6.73;;;0.90;73.40;;;;;;5039861;28;20485;-46
2022/03/07 05:35:23;;;;;;;7.97;5.53;;;0.90;73.50;;;;;;5038549;28;20481;-46
2022/03/07 05:37:50;;;;;;;9.80;7.10;;;1.00;73.50;;;;;;5055155;28;20485;-46
2022/03/07 05:40:17;;;;;;;13.33;6.50;;;1.00;73.30;;;;;;5039858;28;21002;-46
2022/03/07 05:42:44;;;;;;;3.97;3.07;;;1.10;73.30;;;;;;5035530;28;20489;-45
2022/03/07 05:45:13;;;;;;;7.47;6.00;;;1.10;72.80;;;;;;5041801;28;20477;-46
2022/03/07 05:47:40;;;;;;;11.50;8.93;;;1.10;72.90;;;;;;5036710;28;20492;-46
2022/03/07 05:50:10;;;;;;;14.93;6.17;;;1.20;72.90;;;;;;5038480;28;20480;-46
2022/03/07 05:52:36;;;;;;;20.03;6.90;;;1.20;72.60;;;;;;5037099;28;20982;-47
2022/03/07 05:55:05;;;;;;;9.03;5.50;;;1.20;72.40;;;;;;5040804;28;20508;-46
2022/03/07 05:57:32;;;;;;;8.27;7.53;;;1.30;72.60;;;;;;5038863;28;20478;-47
2022/03/07 05:59:58;;;;;;;11.60;6.50;;;1.30;72.40;;;;;;5036109;28;20477;-47
2022/03/07 06:02:25;;;;;;;7.87;5.70;;;1.40;72.30;;;;;;5039359;28;20482;-50
2022/03/07 06:04:52;;;;;;;7.40;6.30;;;1.40;72.30;;;;;;5038921;28;20490;-46
2022/03/07 06:07:20;;;;;;;15.43;5.33;;;1.40;71.80;;;;;;5040321;28;20484;-46
2022/03/07 06:09:46;;;;;;;6.00;4.40;;;1.40;71.70;;;;;;5035973;28;20489;-45
2022/03/07 06:12:13;;;;;;;10.00;6.97;;;1.40;71.50;;;;;;5037719;28;20841;-47
2022/03/07 06:14:40;;;;;;;7.17;6.03;;;1.40;71.60;;;;;;5037331;28;20474;-46
2022/03/07 06:17:06;;;;;;;7.30;6.60;;;1.40;71.50;;;;;;5045167;28;20484;-46
2022/03/07 06:19:33;;;;;;;8.80;5.27;;;1.40;71.20;;;;;;5038454;28;20482;-45
2022/03/07 06:22:00;;;;;;;25.13;7.17;;;1.40;71.30;;;;;;5035642;28;20497;-46
2022/03/07 06:24:29;;;;;;;6.73;3.73;;;1.40;71.20;;;;;;5038335;28;20497;-46
2022/03/07 06:26:56;;;;;;;5.40;4.50;;;1.40;71.20;;;;;;5046200;28;20483;-47
2022/03/07 06:29:24;;;;;;;6.23;4.73;;;1.40;71.10;;;;;;5042474;28;20510;-46
2022/03/07 06:31:50;;;;;;;9.80;6.47;;;1.40;71.30;;;;;;5038288;28;20488;-45
2022/03/07 06:34:17;;;;;;;9.37;6.93;;;1.50;71.60;;;;;;5039220;28;20557;-46
2022/03/07 06:36:44;;;;;;;8.33;6.57;;;1.50;71.10;;;;;;5036974;28;20486;-46
2022/03/07 06:39:11;;;;;;;12.43;7.67;;;1.50;71.20;;;;;;5030548;28;21031;-47
2022/03/07 06:41:39;;;;;;;6.90;6.07;;;1.50;70.90;;;;;;5036853;28;20482;-47
2022/03/07 06:44:06;;;;;;;26.47;7.80;;;1.60;70.90;;;;;;5041589;28;20567;-46
2022/03/07 06:46:32;;;;;;;8.13;5.33;;;1.60;70.80;;;;;;5039761;28;20478;-46
2022/03/07 06:48:59;;;;;;;8.70;6.53;;;1.50;70.40;;;;;;5038850;28;20500;-47
2022/03/07 06:51:26;;;;;;;7.00;5.90;;;1.60;70.70;;;;;;5038905;28;20505;-46
2022/03/07 06:53:52;;;;;;;11.70;6.90;;;1.60;70.50;;;;;;5036561;28;20483;-47
2022/03/07 06:56:19;;;;;;;7.63;6.73;;;1.70;70.90;;;;;;5039399;28;20482;-47
2022/03/07 06:58:47;;;;;;;6.73;6.03;;;1.70;70.60;;;;;;5039574;28;20493;-46
2022/03/07 07:01:14;;;;;;;13.63;5.40;;;1.70;70.60;;;;;;5043600;28;20481;-47
2022/03/07 07:03:41;;;;;;;14.53;4.30;;;1.70;70.30;;;;;;5045287;28;20565;-48
2022/03/07 07:06:08;;;;;;;10.50;6.17;;;1.70;70.20;;;;;;5041239;28;20482;-47
2022/03/07 07:08:35;;;;;;;5.90;5.30;;;1.70;70.20;;;;;;5042190;28;20489;-46
2022/03/07 07:11:01;;;;;;;5.90;5.30;;;1.70;70.00;;;;;;5042315;28;20489;-47
2022/03/07 07:13:28;;;;;;;10.57;7.57;;;2.40;71.50;;;;;;5041964;28;20990;-47
2022/03/07 07:15:56;;;;;;;12.73;5.77;;;3.30;70.30;;;;;;5042368;28;20497;-47
2022/03/07 07:18:23;;;;;;;5.30;4.77;;;4.20;69.20;;;;;;5038855;28;20491;-46
2022/03/07 07:20:50;;;;;;;6.70;5.80;;;5.70;65.70;;;;;;5034443;28;20489;-47
2022/03/07 07:23:17;;;;;;;6.80;5.80;;;6.10;62.80;;;;;;5036405;28;20483;-46
2022/03/07 07:25:44;;;;;;;7.77;6.70;;;5.90;61.00;;;;;;5037106;28;20480;-46
2022/03/07 07:28:11;;;;;;;10.57;7.30;;;5.60;61.30;;;;;;5037043;28;20539;-47
2022/03/07 07:30:38;;;;;;;8.57;6.73;;;6.10;62.70;;;;;;5035991;28;20975;-49
2022/03/07 07:33:06;;;;;;;7.30;5.40;;;6.30;61.30;;;;;;5037705;28;20840;-46
2022/03/07 07:35:34;;;;;;;30.57;7.00;;;7.30;61.20;;;;;;5035749;28;20482;-46
2022/03/07 07:38:00;;;;;;;9.80;7.40;;;8.00;59.50;;;;;;5039578;28;20972;-47
2022/03/07 07:40:27;;;;;;;9.40;6.93;;;8.70;58.60;;;;;;5035917;28;20503;-47
2022/03/07 07:42:54;;;;;;;34.77;9.40;;;9.40;57.10;;;;;;5035425;28;20490;-47
2022/03/07 07:45:21;;;;;;;7.00;5.97;;;10.00;55.60;;;;;;5036568;28;20486;-48
2022/03/07 07:47:48;;;;;;;10.63;8.53;;;10.40;54.80;;;;;;5033940;28;20996;-47
2022/03/07 07:50:16;;;;;;;15.33;9.07;;;10.90;54.50;;;;;;5037623;28;20558;-47
2022/03/07 07:52:42;;;;;;;8.30;6.70;;;11.50;53.80;;;;;;5035470;28;20527;-47
2022/03/07 07:55:10;;;;;;;9.53;7.27;;;11.80;52.60;;;;;;5034162;28;20913;-48
2022/03/07 07:57:39;;;;;;;16.63;7.67;;;;;;;;;;5032479;28;20473;-46
2022/03/07 08:00:08;;;;;;;17.10;8.90;;;11.80;51.30;;;;;;5025195;28;20983;-46
2022/03/07 08:02:35;;;;;;;8.97;7.97;;;11.80;51.40;;;;;;5025360;28;20557;-46
2022/03/07 08:05:02;;;;;;;18.07;9.10;;;11.80;51.00;;;;;;5032160;28;20504;-46
2022/03/07 08:07:31;;;;;;;11.70;9.20;;;11.50;49.90;;;;;;5034416;28;20515;-47
2022/03/07 08:09:57;;;;;;;13.80;8.97;;;11.40;50.30;;;;;;5033923;28;20593;-46
2022/03/07 08:12:24;;;;;;;14.13;7.47;;;11.00;50.30;;;;;;5034840;28;20668;-46
2022/03/07 08:14:51;;;;;;;9.00;7.97;;;10.90;50.80;;;;;;5033076;28;20486;-48
2022/03/07 08:17:17;;;;;;;9.53;8.53;;;10.50;50.90;;;;;;5037337;28;20844;-47
2022/03/07 08:19:44;;;;;;;8.50;5.50;;;9.90;51.30;;;;;;5035182;28;20627;-46
2022/03/07 08:22:11;;;;;;;9.30;7.40;;;9.40;51.50;;;;;;5033226;28;20486;-47
2022/03/07 08:24:39;;;;;;;10.20;8.40;;;8.70;51.70;;;;;;5033105;28;20508;-46
2022/03/07 08:27:05;;;;;;;18.87;6.60;;;7.80;52.90;;;;;;5042997;28;20853;-46
2022/03/07 08:29:32;;;;;;;8.70;7.10;;;7.30;53.40;;;;;;5034214;28;21060;-46
2022/03/07 08:31:59;;;;;;;6.30;4.77;;;6.90;53.90;;;;;;5034934;28;21311;-46
2022/03/07 08:34:25;;;;;;;15.27;7.07;;;6.30;54.80;;;;;;5040461;28;20494;-46
2022/03/07 08:36:52;;;;;;;5.37;4.30;;;6.00;54.70;;;;;;5034207;28;21246;-46
2022/03/07 08:39:19;;;;;;;6.13;5.10;;;5.80;55.50;;;;;;5034666;28;20477;-46
2022/03/07 08:41:47;;;;;;;15.47;5.47;;;5.70;55.70;;;;;;5034128;28;20488;-46
2022/03/07 08:44:13;;;;;;;15.37;5.80;;;5.80;56.40;;;;;;5036513;28;20492;-46
2022/03/07 08:46:41;;;;;;;8.60;6.80;;;5.80;55.90;;;;;;5035661;28;20499;-46
2022/03/07 08:49:07;;;;;;;14.80;6.90;;;5.70;55.90;;;;;;5035028;28;21312;-46
2022/03/07 08:51:34;;;;;;;5.10;4.60;;;5.70;56.30;;;;;;5037935;28;20484;-46
2022/03/07 08:54:01;;;;;;;5.37;4.33;;;5.60;56.50;;;;;;5038354;28;20466;-46
2022/03/07 08:56:28;;;;;;;19.57;9.07;;;5.50;56.00;;;;;;5037089;28;20492;-46
2022/03/07 08:58:56;;;;;;;8.37;7.50;;;5.60;57.00;;;;;;5035299;28;20998;-46
2022/03/07 09:01:22;;;;;;;7.27;5.00;;;5.60;56.80;;;;;;5030416;28;20480;-46
2022/03/07 09:03:49;;;;;;;11.30;6.63;;;5.70;56.50;;;;;;5029378;28;20472;-46
2022/03/07 09:06:16;;;;;;;12.70;7.67;;;5.90;56.60;;;;;;5037092;28;20869;-46
2022/03/07 09:08:43;;;;;;;9.37;7.73;;;6.10;57.20;;;;;;5034232;28;20477;-49
2022/03/07 09:11:10;;;;;;;18.73;9.10;;;6.30;55.70;;;;;;5035650;28;20484;-46
2022/03/07 09:13:36;;;;;;;9.03;6.60;;;6.40;54.90;;;;;;5036009;28;20481;-46
2022/03/07 09:16:05;;;;;;;15.17;10.47;;;6.40;54.40;;;;;;5041242;28;20854;-46
2022/03/07 09:18:32;;;;;;;17.43;8.67;;;6.40;53.60;;;;;;5038535;28;20495;-46
2022/03/07 09:20:58;;;;;;;11.70;8.77;;;6.60;53.90;;;;;;5037863;28;20493;-46
2022/03/07 09:23:27;;;;;;;12.10;8.50;;;6.70;54.30;;;;;;5034845;28;20485;-46
2022/03/07 09:25:53;;;;;;;16.40;8.00;;;6.80;54.10;;;;;;5040180;28;21197;-47
2022/03/07 09:28:20;;;;;;;11.17;6.90;;;6.80;54.00;;;;;;5035645;28;20483;-45
2022/03/07 09:30:47;;;;;;;13.27;8.67;;;6.80;53.60;;;;;;5032908;28;20496;-46
2022/03/07 09:33:15;;;;;;;14.57;7.57;;;6.70;53.70;;;;;;5035837;28;20477;-47
2022/03/07 09:35:41;;;;;;;10.90;9.10;;;6.70;54.40;;;;;;5024218;28;20487;-46
2022/03/07 09:38:08;;;;;;;10.63;7.83;;;6.60;54.50;;;;;;5034763;28;20488;-45
2022/03/07 09:40:35;;;;;;;18.77;7.07;;;6.60;53.70;;;;;;5032422;28;21275;-44
2022/03/07 09:43:03;;;;;;;10.80;8.30;;;6.50;53.80;;;;;;5030414;28;20488;-46
2022/03/07 09:45:29;;;;;;;6.73;5.27;;;6.60;54.70;;;;;;5037192;28;20746;-46
2022/03/07 09:47:58;;;;;;;15.43;7.40;;;6.40;53.80;;;;;;5038212;28;20995;-46
2022/03/07 09:50:26;;;;;;;19.47;8.57;;;6.40;54.70;;;;;;5035456;28;20890;-45
2022/03/07 09:52:54;;;;;;;10.87;7.43;;;6.50;54.20;;;;;;5036247;28;20475;-45
2022/03/07 09:55:22;;;;;;;15.03;7.53;;;6.60;54.70;;;;;;5034926;28;20509;-46
2022/03/07 09:57:50;;;;;;;11.23;7.47;;;6.60;53.60;;;;;;5033877;28;20486;-45
2022/03/07 10:00:18;;;;;;;5.87;5.17;;;;;;;;;;5033320;28;20484;-46
2022/03/07 10:02:56;;;;;;;12.63;9.03;;;6.50;53.60;;;;;;5034350;28;20602;-47
2022/03/07 10:05:27;;;;;;;9.87;6.27;;;6.70;55.20;;;;;;5028086;28;20480;-45
2022/03/07 10:07:54;;;;;;;19.20;7.17;;;6.70;54.30;;;;;;5038234;28;20494;-45
2022/03/07 10:10:21;;;;;;;15.93;9.90;;;6.70;53.80;;;;;;5034247;28;20484;-46
2022/03/07 10:12:49;;;;;;;13.33;9.60;;;6.80;55.10;;;;;;5036840;28;20486;-46
2022/03/07 10:15:18;;;;;;;17.23;9.50;;;6.90;54.70;;;;;;5034305;28;21055;-46
2022/03/07 10:17:51;;;;;;;9.70;6.30;;;7.00;54.30;;;;;;5037393;28;20615;-46
2022/03/07 10:20:19;;;;;;;16.33;8.60;;;6.80;52.90;;;;;;5025755;28;20481;-47
2022/03/07 10:22:49;;;;;;;13.83;9.10;;;6.70;53.30;;;;;;5036780;28;20476;-46
2022/03/07 10:25:17;;;;;;;16.60;11.10;;;6.80;54.00;;;;;;5037294;28;20475;-46
2022/03/07 10:27:49;;;;;;;18.53;5.40;;;6.90;54.00;;;;;;5025690;28;20487;-46
2022/03/07 10:30:17;;;;;;;11.07;5.97;;;7.10;55.30;;;;;;5022096;28;20470;-45
2022/03/07 10:32:51;;;;;;;12.30;8.30;;;7.10;54.10;;;;;;5020824;28;20480;-46
2022/03/07 10:35:23;;;;;;;12.33;8.40;;;7.10;53.10;;;;;;5026840;28;20481;-46
2022/03/07 10:37:56;;;;;;;8.77;6.00;;;7.00;53.10;;;;;;5034764;28;20472;-46
2022/03/07 10:40:23;;;;;;;19.83;10.17;;;7.10;55.00;;;;;;5037125;28;20484;-46
2022/03/07 10:42:52;;;;;;;13.83;10.37;;;6.80;52.70;;;;;;5035010;28;20488;-47
2022/03/07 10:45:18;;;;;;;12.40;9.20;;;6.80;52.40;;;;;;5038331;28;20478;-47
2022/03/07 10:47:51;;;;;;;24.90;11.97;;;7.10;55.30;;;;;;5025496;28;21270;-46
2022/03/07 10:50:21;;;;;;;18.03;10.67;;;7.30;54.00;;;;;;5023677;28;20477;-46
2022/03/07 10:52:48;;;;;;;17.57;9.50;;;;;;;;;;5025676;28;20491;-47
2022/03/07 10:55:24;;;;;;;14.20;11.23;;;7.60;55.00;;;;;;5035174;28;20491;-46
2022/03/07 10:57:51;;;;;;;12.07;9.00;;;7.30;52.10;;;;;;5028890;28;20981;-47
2022/03/07 11:00:20;;;;;;;13.23;8.10;;;7.10;51.70;;;;;;5037382;28;20487;-46
2022/03/07 11:02:48;;;;;;;13.37;8.60;;;7.10;53.00;;;;;;5036157;28;20778;-46
2022/03/07 11:05:18;;;;;;;13.73;10.10;;;7.30;53.90;;;;;;5044048;28;20710;-46
2022/03/07 11:07:49;;;;;;;16.57;7.63;;;7.40;54.10;;;;;;5036737;28;20941;-46
2022/03/07 11:10:17;;;;;;;12.23;8.37;;;7.60;55.00;;;;;;5023556;28;20472;-46
2022/03/07 11:12:45;;;;;;;13.50;9.87;;;;;;;;;;5034784;28;20486;-46
2022/03/07 11:15:18;;;;;;;13.90;10.13;;;7.10;54.50;;;;;;5032702;28;20476;-47
2022/03/07 11:17:47;;;;;;;13.40;7.73;;;7.30;54.30;;;;;;5035040;28;20953;-46
2022/03/07 11:20:15;;;;;;;17.30;9.20;;;7.20;53.70;;;;;;5036429;28;20906;-48
2022/03/07 11:22:42;;;;;;;21.53;12.33;;;6.60;51.90;;;;;;5032310;28;20477;-47
2022/03/07 11:25:10;;;;;;;7.93;5.40;;;6.50;52.60;;;;;;5033761;28;20495;-46
2022/03/07 11:27:39;;;;;;;13.70;7.67;;;6.70;53.60;;;;;;5045911;28;20480;-46
2022/03/07 11:30:19;;;;;;;10.60;6.43;;;6.20;52.30;;;;;;5036162;28;20991;-46
2022/03/07 11:32:46;;;;;;;16.50;12.50;;;6.50;56.20;;;;;;5038335;28;20690;-46
2022/03/07 11:35:15;;;;;;;21.90;10.17;;;6.80;56.60;;;;;;5038347;28;20972;-47
2022/03/07 11:37:42;;;;;;;15.73;9.40;;;7.00;54.40;;;;;;5041992;28;20556;-46
2022/03/07 11:40:21;;;;;;;22.20;8.70;;;7.20;54.30;;;;;;5038615;28;21110;-46
2022/03/07 11:42:50;;;;;;;17.00;8.80;;;7.30;53.60;;;;;;5028097;28;20493;-47
2022/03/07 11:45:18;;;;;;;15.53;9.60;;;;;;;;;;5036897;28;20833;-46
2022/03/07 11:47:46;;;;;;;17.17;10.40;;;7.30;53.30;;;;;;5038557;28;20462;-46
2022/03/07 11:50:15;;;;;;;11.43;8.27;;;7.30;53.10;;;;;;5050824;28;21020;-46
2022/03/07 11:52:42;;;;;;;26.13;11.17;;;7.40;54.00;;;;;;5041673;28;20550;-46
2022/03/07 11:55:12;;;;;;;15.17;11.57;;;7.40;53.70;;;;;;5036480;28;20493;-47
2022/03/07 11:57:41;;;;;;;18.20;9.60;;;7.20;52.30;;;;;;5034665;28;20994;-48
2022/03/07 12:00:14;;;;;;;11.47;7.30;;;7.30;53.50;;;;;;5025360;28;20486;-46
2022/03/07 12:02:42;;;;;;;15.50;8.83;;;7.20;53.60;;;;;;5045895;28;20476;-47
2022/03/07 12:05:20;;;;;;;17.87;11.27;;;7.10;52.50;;;;;;5032721;28;21056;-46
2022/03/07 12:07:47;;;;;;;14.40;10.80;;;7.10;53.00;;;;;;5031835;28;20498;-47
2022/03/07 12:10:14;;;;;;;11.53;5.87;;;7.10;53.50;;;;;;5033985;28;20495;-46
2022/03/07 12:12:41;;;;;;;16.83;7.90;;;7.30;54.20;;;;;;5034439;28;20493;-45
2022/03/07 12:15:09;;;;;;;11.70;8.60;;;7.40;53.00;;;;;;5039481;28;20481;-46
2022/03/07 12:17:37;;;;;;;13.53;8.53;;;7.40;53.40;;;;;;5047578;28;20496;-46
2022/03/07 12:20:06;;;;;;;12.20;9.90;;;7.40;53.40;;;;;;5035823;28;20481;-46
2022/03/07 12:22:35;;;;;;;17.67;11.80;;;7.40;53.20;;;;;;5039048;28;20477;-46
2022/03/07 12:25:05;;;;;;;11.33;8.77;;;7.30;54.60;;;;;;5036582;28;20485;-46
2022/03/07 12:27:35;;;;;;;21.93;14.30;;;7.40;53.60;;;;;;5034564;28;20993;-46
2022/03/07 12:30:01;;;;;;;18.87;13.77;;;7.30;53.20;;;;;;5033337;28;20875;-47
2022/03/07 12:32:28;;;;;;;11.87;10.03;;;7.10;53.70;;;;;;5029746;28;20495;-46
2022/03/07 12:34:56;;;;;;;20.97;8.63;;;7.50;55.40;;;;;;5044566;28;20893;-47
2022/03/07 12:37:28;;;;;;;16.10;12.67;;;7.30;53.00;;;;;;5023902;28;20841;-46
2022/03/07 12:39:58;;;;;;;13.97;10.57;;;7.20;51.30;;;;;;5025547;28;20532;-47
2022/03/07 12:42:26;;;;;;;10.73;7.47;;;7.30;53.10;;;;;;5042034;28;20565;-46
2022/03/07 12:44:53;;;;;;;17.10;13.00;;;7.60;53.70;;;;;;5033768;28;20989;-46
2022/03/07 12:47:26;;;;;;;9.10;7.67;;;7.70;52.90;;;;;;5031146;28;20479;-47
2022/03/07 12:49:53;;;;;;;16.80;10.27;;;7.70;52.60;;;;;;5038283;28;20894;-46